Time;durP1;ratioP1;P1;durP2;ratioP2;P2;SDS_P1;SDS_P2;PMS_P1;PMS_P2;Temp;Humidity;BMP_temperature;BMP_pressure;BME280_temperature;BME280_humidity;BME280_pressure;Samples;Min_cycle;Max_cycle;Signal;HPM_P1;HPM_P2
2023/08/13 00:02:00;;;;;;;11.20;2.00;;;;;;;17.65;78.41;101573.06;5027468;28;20133;-71
2023/08/13 00:04:28;;;;;;;8.35;1.98;;;;;;;17.62;78.29;101571.41;5025941;28;20553;-72
2023/08/13 00:06:55;;;;;;;8.20;1.63;;;;;;;17.60;78.61;101573.28;5007726;28;20041;-72
2023/08/13 00:09:23;;;;;;;7.32;2.20;;;;;;;17.57;79.15;101570.75;5025024;28;20509;-71
2023/08/13 00:11:50;;;;;;;7.22;2.28;;;;;;;17.54;78.74;101574.44;5025880;28;20095;-73
2023/08/13 00:14:17;;;;;;;6.32;1.98;;;;;;;17.50;78.70;101575.50;5025410;28;20045;-73
2023/08/13 00:16:45;;;;;;;10.77;2.35;;;;;;;17.46;78.66;101571.28;5024612;28;20065;-71
2023/08/13 00:19:12;;;;;;;10.73;2.10;;;;;;;17.43;79.20;101573.22;5025462;28;20049;-73
2023/08/13 00:21:40;;;;;;;7.10;1.90;;;;;;;17.40;78.86;101574.22;5025472;28;20042;-71
2023/08/13 00:24:17;;;;;;;6.78;1.70;;;;;;;17.35;79.17;101577.09;5024210;28;20266;-72
2023/08/13 00:26:44;;;;;;;7.35;1.95;;;;;;;17.33;79.61;101570.13;5025510;28;20316;-73
2023/08/13 00:29:11;;;;;;;9.27;2.10;;;;;;;17.31;79.84;101585.31;5024893;28;20565;-73
2023/08/13 00:31:38;;;;;;;8.38;1.90;;;;;;;17.28;79.92;101580.16;5024185;28;20037;-73
2023/08/13 00:34:06;;;;;;;9.10;2.30;;;;;;;17.25;79.39;101585.63;5025756;28;20128;-72
2023/08/13 00:36:33;;;;;;;10.00;2.50;;;;;;;17.17;79.91;101578.84;5007499;28;20041;-72
2023/08/13 00:39:01;;;;;;;7.90;2.40;;;;;;;17.09;80.00;101573.03;5024672;28;20449;-73
2023/08/13 00:41:28;;;;;;;8.02;2.70;;;;;;;17.03;80.27;101578.59;5025226;28;20099;-73
2023/08/13 00:43:55;;;;;;;11.10;2.60;;;;;;;16.96;80.49;101572.69;5024864;28;20052;-72
2023/08/13 00:46:22;;;;;;;8.73;2.50;;;;;;;16.90;80.71;101575.63;5024930;28;20047;-73
2023/08/13 00:48:58;;;;;;;7.47;2.30;;;;;;;16.85;80.79;101578.50;5023874;28;20040;-73
2023/08/13 00:51:27;;;;;;;10.93;2.58;;;;;;;16.78;81.00;101571.72;5007424;28;20128;-73
2023/08/13 00:53:54;;;;;;;8.77;2.58;;;;;;;16.73;81.55;101571.94;5024073;28;20053;-73
2023/08/13 00:56:22;;;;;;;6.90;1.80;;;;;;;16.69;81.40;101572.09;5023585;28;20060;-72
2023/08/13 00:58:50;;;;;;;10.15;2.70;;;;;;;16.65;81.67;101571.38;5026849;28;20042;-72
2023/08/13 01:01:17;;;;;;;7.80;2.30;;;;;;;16.61;81.81;101580.44;5007525;28;20483;-72
2023/08/13 01:03:44;;;;;;;8.10;2.17;;;;;;;16.57;82.09;101573.53;5024293;28;20358;-73
2023/08/13 01:07:09;;;;;;;6.90;2.25;;;;;;;16.53;81.92;101571.94;5024247;28;20037;-72
2023/08/13 01:10:23;;;;;;;10.88;2.70;;;;;;;16.45;82.42;101566.94;5006889;28;20099;-72
2023/08/13 01:13:25;;;;;;;6.63;2.50;;;;;;;16.40;82.58;101569.81;5024605;28;20045;-72
2023/08/13 01:15:53;;;;;;;9.50;2.38;;;;;;;16.36;82.75;101562.88;5027042;28;20053;-72
2023/08/13 01:18:22;;;;;;;7.60;2.15;;;;;;;16.34;83.11;101558.56;5011208;28;20551;-72
2023/08/13 01:20:49;;;;;;;8.40;2.60;;;;;;;16.29;83.26;101554.28;5010691;28;20033;-72
2023/08/13 01:23:17;;;;;;;5.90;2.20;;;;;;;16.28;83.30;101559.69;5010385;28;20509;-72
2023/08/13 01:26:03;;;;;;;8.05;2.50;;;;;;;16.25;83.49;101549.16;5027551;28;20038;-72
2023/08/13 01:28:38;;;;;;;9.90;2.40;;;;;;;16.24;83.41;101558.97;5028448;28;20049;-73
2023/08/13 01:31:25;;;;;;;8.57;2.30;;;;;;;16.20;83.78;101551.19;5009198;28;20033;-72
2023/08/13 01:33:53;;;;;;;14.07;2.85;;;;;;;16.18;83.98;101553.88;5028581;28;20046;-72
2023/08/13 01:36:23;;;;;;;8.73;2.15;;;;;;;16.17;83.99;101556.63;5009444;28;20417;-73
2023/08/13 01:38:53;;;;;;;5.50;2.03;;;;;;;16.13;84.05;101559.41;5026226;28;20045;-72
2023/08/13 01:41:20;;;;;;;9.88;2.58;;;;;;;16.10;83.96;101564.00;5026542;28;20386;-72
2023/08/13 01:43:47;;;;;;;5.90;2.20;;;;;;;16.08;84.30;101563.19;5028173;28;20038;-72
2023/08/13 01:46:15;;;;;;;5.45;2.35;;;;;;;16.06;84.57;101565.91;5027747;28;20073;-72
2023/08/13 01:48:42;;;;;;;9.25;2.58;;;;;;;16.05;84.70;101564.19;5010432;28;20055;-72
2023/08/13 01:51:09;;;;;;;8.98;2.38;;;;;;;16.04;84.84;101562.44;5023473;28;20081;-72
2023/08/13 01:53:36;;;;;;;9.25;2.42;;;;;;;15.99;84.98;101559.97;5028017;28;20049;-73
2023/08/13 01:56:03;;;;;;;8.07;2.47;;;;;;;15.99;85.10;101565.31;5026157;28;20051;-72
2023/08/13 01:58:30;;;;;;;10.15;3.00;;;;;;;15.98;85.28;101568.03;5010390;28;20160;-72
2023/08/13 02:00:57;;;;;;;9.40;2.20;;;;;;;15.96;85.27;101570.78;5012762;28;21005;-72
2023/08/13 02:03:24;;;;;;;8.07;2.20;;;;;;;15.95;85.28;101573.47;5028082;28;20045;-72
2023/08/13 02:05:51;;;;;;;9.40;2.47;;;;;;;15.92;85.58;101569.16;5027909;28;20111;-72
2023/08/13 02:08:19;;;;;;;9.95;2.75;;;;;;;15.92;85.40;101570.97;5010087;28;20049;-73
2023/08/13 02:10:46;;;;;;;10.10;2.58;;;;;;;15.90;85.53;101575.47;5025917;28;20034;-72
2023/08/13 02:13:13;;;;;;;7.40;2.53;;;;;;;15.90;85.44;101578.97;5028257;28;20457;-72
2023/08/13 02:15:40;;;;;;;7.97;2.28;;;;;;;15.90;86.03;101568.34;5025360;28;20041;-72
2023/08/13 02:18:07;;;;;;;6.50;2.50;;;;;;;15.90;85.62;101567.50;5025698;28;20055;-74
2023/08/13 02:20:34;;;;;;;7.97;1.98;;;;;;;15.88;85.67;101569.34;5026993;28;20084;-72
2023/08/13 02:23:01;;;;;;;11.52;2.80;;;;;;;15.87;86.01;101571.16;5009565;28;20271;-72
2023/08/13 02:25:28;;;;;;;7.78;2.38;;;;;;;15.83;85.86;101566.84;5024899;28;20041;-72
2023/08/13 02:27:57;;;;;;;8.77;2.60;;;;;;;15.86;86.08;101565.88;5027404;28;20490;-72
2023/08/13 02:30:24;;;;;;;9.60;2.85;;;;;;;15.87;86.20;101567.59;5026473;28;20103;-72
2023/08/13 02:32:51;;;;;;;10.48;2.42;;;;;;;15.88;86.54;101564.88;5027228;28;20848;-72
2023/08/13 02:35:18;;;;;;;8.13;2.45;;;;;;;15.91;86.40;101564.75;5026891;28;20045;-72
2023/08/13 02:37:45;;;;;;;8.43;2.28;;;;;;;15.93;86.38;101560.25;5027466;28;20418;-72
2023/08/13 02:40:12;;;;;;;5.45;2.15;;;;;;;15.96;86.29;101569.88;5007702;28;20037;-72
2023/08/13 02:42:39;;;;;;;9.77;2.40;;;;;;;15.98;86.18;101565.38;5027116;28;20836;-72
2023/08/13 02:45:06;;;;;;;9.45;2.30;;;;;;;15.99;86.17;101559.97;5009563;28;20040;-72
2023/08/13 02:47:33;;;;;;;9.57;2.53;;;;;;;15.99;86.06;101559.13;5008929;28;20049;-72
2023/08/13 02:50:00;;;;;;;9.50;2.63;;;;;;;15.99;86.23;101562.66;5027011;28;20053;-72
2023/08/13 02:52:30;;;;;;;9.77;2.45;;;;;;;16.00;86.28;101555.53;5008851;28;20061;-72
2023/08/13 02:54:57;;;;;;;9.93;2.53;;;;;;;15.98;85.95;101554.75;5008766;28;20103;-72
2023/08/13 02:57:24;;;;;;;8.27;2.40;;;;;;;15.99;86.33;101556.47;5025196;28;20042;-72
2023/08/13 02:59:51;;;;;;;9.05;2.40;;;;;;;15.98;86.37;101558.25;5016109;28;20045;-72
2023/08/13 03:02:18;;;;;;;10.05;2.42;;;;;;;15.97;86.68;101551.19;5026746;28;20087;-72
2023/08/13 03:04:45;;;;;;;9.77;2.45;;;;;;;15.97;86.35;101553.84;5008410;28;20042;-72
2023/08/13 03:07:12;;;;;;;8.25;2.30;;;;;;;15.95;86.47;101552.19;5008124;28;20041;-72
2023/08/13 03:09:39;;;;;;;6.25;2.17;;;;;;;15.94;86.50;101554.00;5007764;28;20046;-72
2023/08/13 03:12:07;;;;;;;10.77;2.53;;;;;;;15.92;86.54;101560.31;5004960;28;20046;-72
2023/08/13 03:14:35;;;;;;;9.18;2.20;;;;;;;15.90;86.80;101552.38;5014278;28;20080;-72
2023/08/13 03:17:02;;;;;;;11.82;2.20;;;;;;;15.90;86.77;101559.50;5008829;28;20038;-72
2023/08/13 03:19:29;;;;;;;8.00;2.45;;;;;;;15.84;86.97;101556.16;5006913;28;20046;-72
2023/08/13 03:21:57;;;;;;;12.50;2.75;;;;;;;15.83;86.98;101550.88;5007855;28;20044;-72
2023/08/13 03:24:25;;;;;;;12.85;2.55;;;;;;;15.81;87.18;101556.28;5008036;28;20045;-71
2023/08/13 03:26:52;;;;;;;6.63;2.05;;;;;;;15.79;87.30;101554.59;5025836;28;20037;-72
2023/08/13 03:29:20;;;;;;;11.50;2.30;;;;;;;15.77;87.31;101549.34;5024818;28;20037;-72
2023/08/13 03:31:48;;;;;;;9.90;2.58;;;;;;;15.74;87.26;101553.94;5008115;28;20049;-72
2023/08/13 03:34:24;;;;;;;8.13;2.50;;;;;;;15.68;87.41;101553.22;5007222;28;20425;-73
2023/08/13 03:36:52;;;;;;;7.90;2.20;;;;;;;15.64;87.88;101554.31;5006965;28;20531;-73
2023/08/13 03:39:20;;;;;;;7.22;2.25;;;;;;;15.61;87.61;101562.38;5026260;28;20065;-73
2023/08/13 03:41:47;;;;;;;12.68;2.80;;;;;;;15.55;87.84;101552.03;5023615;28;20038;-71
2023/08/13 03:44:14;;;;;;;12.18;2.55;;;;;;;15.47;88.18;101557.63;5007873;28;20055;-71
2023/08/13 03:46:41;;;;;;;9.75;2.60;;;;;;;15.42;87.72;101554.28;5008168;28;20052;-71
2023/08/13 03:49:08;;;;;;;8.95;2.80;;;;;;;15.38;88.00;101552.69;5024934;28;20045;-71
2023/08/13 03:51:35;;;;;;;10.07;2.80;;;;;;;15.33;88.43;101560.84;5006522;28;20053;-71
2023/08/13 03:54:02;;;;;;;10.50;2.40;;;;;;;15.29;88.73;101561.88;5007226;28;20171;-71
2023/08/13 03:56:36;;;;;;;10.88;2.88;;;;;;;15.25;88.76;101570.00;5005951;28;20592;-71
2023/08/13 03:59:03;;;;;;;8.90;2.45;;;;;;;15.20;89.06;101565.75;5010508;28;20046;-71
2023/08/13 04:01:31;;;;;;;9.55;2.83;;;;;;;15.16;88.79;101571.25;5006876;28;20052;-71
2023/08/13 04:03:58;;;;;;;10.70;2.90;;;;;;;15.12;89.18;101559.84;5007656;28;20474;-73
2023/08/13 04:06:25;;;;;;;12.20;3.30;;;;;;;15.09;89.48;101567.94;5024689;28;20449;-73
2023/08/13 04:08:52;;;;;;;10.52;3.35;;;;;;;15.07;89.71;101564.47;5021301;28;20540;-72
2023/08/13 04:11:20;;;;;;;9.13;2.70;;;;;;;15.04;89.86;101562.81;5004421;28;20502;-72
2023/08/13 04:13:47;;;;;;;8.63;3.22;;;;;;;15.04;90.12;101564.59;5005926;28;20557;-72
2023/08/13 04:16:14;;;;;;;12.23;3.03;;;;;;;15.03;90.25;101569.03;5025483;28;20068;-72
2023/08/13 04:18:45;;;;;;;9.60;3.25;;;;;;;15.02;90.14;101566.44;5023386;28;20587;-72
2023/08/13 04:21:12;;;;;;;7.38;2.78;;;;;;;15.00;90.40;101565.66;5021275;28;20052;-72
2023/08/13 04:23:39;;;;;;;11.52;3.33;;;;;;;14.97;90.62;101569.25;5006677;28;20494;-72
2023/08/13 04:26:06;;;;;;;9.70;2.95;;;;;;;14.96;90.69;101566.66;5006966;28;20096;-72
2023/08/13 04:28:34;;;;;;;10.82;2.90;;;;;;;14.96;90.75;101574.63;5024783;28;20045;-72
2023/08/13 04:31:01;;;;;;;11.30;3.40;;;;;;;14.97;91.00;101571.06;5009673;28;20486;-72
2023/08/13 04:33:31;;;;;;;8.45;2.65;;;;;;;15.00;91.21;101571.81;5008061;28;20565;-72
2023/08/13 04:35:59;;;;;;;10.18;3.33;;;;;;;15.03;91.15;101571.69;5025582;28;20356;-72
2023/08/13 04:38:27;;;;;;;13.05;3.38;;;;;;;15.07;91.32;101577.75;5005911;28;20049;-72
2023/08/13 04:40:58;;;;;;;7.38;2.97;;;;;;;15.12;91.25;101572.28;5007005;28;20067;-72
2023/08/13 04:43:25;;;;;;;13.13;3.35;;;;;;;15.15;91.24;101573.03;5006949;28;20045;-72
2023/08/13 04:45:52;;;;;;;10.57;3.40;;;;;;;15.21;91.26;101575.44;5007667;28;20049;-72
2023/08/13 04:48:45;;;;;;;10.10;3.30;;;;;;;15.29;91.22;101574.28;5023595;28;20061;-72
2023/08/13 04:51:21;;;;;;;11.65;3.85;;;;;;;15.34;91.16;101569.66;4997336;28;20092;-72
2023/08/13 04:53:48;;;;;;;14.38;4.10;;;;;;;15.39;91.06;101570.34;5007207;28;20077;-72
2023/08/13 04:56:17;;;;;;;9.52;3.50;;;;;;;15.45;91.17;101569.25;4993732;28;20182;-72
2023/08/13 04:58:44;;;;;;;9.98;3.70;;;;;;;15.52;91.01;101573.38;5024107;28;20061;-72
2023/08/13 05:01:13;;;;;;;11.38;3.70;;;;;;;15.58;90.89;101574.94;5020550;28;20127;-72
2023/08/13 05:03:44;;;;;;;11.10;3.42;;;;;;;15.62;90.72;101574.75;5007304;28;20046;-72
2023/08/13 05:06:13;;;;;;;10.68;3.70;;;;;;;15.69;90.63;101572.72;5006523;28;20046;-72
2023/08/13 05:08:40;;;;;;;11.30;3.40;;;;;;;15.75;90.50;101561.81;5005040;28;20042;-72
2023/08/13 05:11:08;;;;;;;10.25;3.40;;;;;;;15.89;90.02;101563.94;5024867;28;20049;-72
2023/08/13 05:13:35;;;;;;;11.93;3.88;;;;;;;15.96;89.88;101572.53;5005504;28;20052;-72
2023/08/13 05:16:03;;;;;;;10.32;3.78;;;;;;;16.00;89.80;101574.16;5007215;28;20049;-71
2023/08/13 05:18:31;;;;;;;9.05;3.40;;;;;;;16.03;89.54;101571.34;5007560;28;20037;-72
2023/08/13 05:20:58;;;;;;;8.68;3.40;;;;;;;16.13;89.31;101579.81;5007098;28;20440;-72
2023/08/13 05:23:26;;;;;;;13.50;4.35;;;;;;;16.29;88.70;101577.38;5006799;28;20095;-72
2023/08/13 05:25:54;;;;;;;8.55;3.13;;;;;;;16.45;88.72;101569.59;5007705;28;20057;-73
2023/08/13 05:28:21;;;;;;;10.95;3.58;;;;;;;16.58;88.53;101572.59;5008656;28;20409;-72
2023/08/13 05:30:49;;;;;;;9.10;3.20;;;;;;;16.88;87.71;101572.16;5006598;28;20044;-72
2023/08/13 05:33:16;;;;;;;9.88;3.42;;;;;;;17.31;86.66;101582.66;5006706;28;20414;-72
2023/08/13 05:35:44;;;;;;;11.95;3.47;;;;;;;18.59;83.53;101573.69;5007889;28;20358;-72
2023/08/13 05:38:11;;;;;;;11.30;2.83;;;;;;;18.69;82.06;101570.53;5006675;28;20041;-72
2023/08/13 05:40:39;;;;;;;7.03;2.55;;;;;;;18.70;81.82;101575.81;5019566;28;20033;-72
2023/08/13 05:43:06;;;;;;;13.68;3.25;;;;;;;18.82;80.89;101573.44;5005682;28;20049;-73
2023/08/13 05:45:33;;;;;;;8.65;2.92;;;;;;;19.31;78.98;101565.44;5007719;28;20096;-73
2023/08/13 05:48:02;;;;;;;9.73;2.80;;;;;;;20.27;75.99;101569.78;5007491;28;20041;-71
2023/08/13 05:50:29;;;;;;;6.57;2.78;;;;;;;19.98;75.78;101569.72;5019118;28;20288;-73
2023/08/13 05:52:57;;;;;;;10.70;2.53;;;;;;;19.83;75.67;101574.97;5002332;28;20345;-73
2023/08/13 05:55:24;;;;;;;8.30;2.75;;;;;;;19.34;76.58;101581.28;5003778;28;20034;-72
2023/08/13 05:57:51;;;;;;;8.73;2.60;;;;;;;18.86;77.41;101586.53;5006954;28;20041;-73
2023/08/13 06:00:18;;;;;;;5.93;2.53;;;;;;;18.49;78.88;101588.47;5004817;28;20037;-72
2023/08/13 06:02:45;;;;;;;7.30;2.72;;;;;;;18.25;79.56;101591.47;5008095;28;20034;-72
2023/08/13 06:05:13;;;;;;;5.97;2.60;;;;;;;18.21;80.22;101589.03;5008114;28;20046;-72
2023/08/13 06:07:40;;;;;;;8.07;3.15;;;;;;;18.27;80.71;101594.03;5008559;28;20057;-72
2023/08/13 06:10:08;;;;;;;11.75;3.38;;;;;;;18.32;80.87;101592.00;5007155;28;20053;-72
2023/08/13 06:12:35;;;;;;;6.68;2.70;;;;;;;18.30;81.13;101589.41;5006855;28;20155;-72
2023/08/13 06:15:02;;;;;;;8.85;3.10;;;;;;;18.33;81.51;101592.88;5006248;28;20038;-72
2023/08/13 06:17:29;;;;;;;8.23;3.35;;;;;;;18.40;81.20;101599.63;5010928;28;20046;-72
2023/08/13 06:19:57;;;;;;;11.93;3.17;;;;;;;18.56;81.36;101587.22;5006205;28;20041;-73
2023/08/13 06:22:25;;;;;;;9.73;2.72;;;;;;;18.63;80.95;101590.41;5007594;28;20509;-72
2023/08/13 06:24:52;;;;;;;9.95;2.90;;;;;;;18.62;80.84;101588.66;5007373;28;20064;-72
2023/08/13 06:27:19;;;;;;;12.68;3.50;;;;;;;18.62;80.39;101589.56;5006455;28;20120;-72
2023/08/13 06:29:46;;;;;;;7.75;2.92;;;;;;;18.64;80.46;101589.47;5006126;28;20041;-71
2023/08/13 06:32:33;;;;;;;9.40;2.67;;;;;;;18.62;80.79;101599.34;5006958;28;20050;-72
2023/08/13 06:35:00;;;;;;;8.65;2.92;;;;;;;18.60;80.52;101590.59;5008820;28;20061;-72
2023/08/13 06:37:27;;;;;;;11.57;3.15;;;;;;;18.63;80.64;101593.94;5006974;28;20490;-72
2023/08/13 06:39:54;;;;;;;10.60;2.88;;;;;;;18.65;79.79;101598.34;5006093;28;20052;-72
2023/08/13 06:42:21;;;;;;;7.63;2.85;;;;;;;18.65;80.28;101590.34;5006086;28;20074;-72
2023/08/13 06:44:49;;;;;;;9.15;2.78;;;;;;;18.69;79.90;101599.91;5006723;28;20045;-72
2023/08/13 06:47:16;;;;;;;7.55;2.80;;;;;;;18.74;79.93;101593.38;5007493;28;20499;-72
2023/08/13 06:49:43;;;;;;;13.23;3.30;;;;;;;18.93;79.85;101601.31;5003521;28;20057;-72
2023/08/13 06:52:10;;;;;;;8.63;2.65;;;;;;;19.18;79.55;101591.94;5007411;28;20581;-71
2023/08/13 06:54:38;;;;;;;8.60;2.38;;;;;;;19.39;79.39;101592.59;5012765;28;20056;-73
2023/08/13 06:57:05;;;;;;;9.52;2.58;;;;;;;19.59;79.06;101595.06;5026601;28;20041;-72
2023/08/13 06:59:32;;;;;;;9.63;2.65;;;;;;;19.68;77.99;101595.44;5028046;28;20037;-73
2023/08/13 07:01:59;;;;;;;7.65;2.38;;;;;;;19.85;77.65;101593.59;5026357;28;20045;-72
2023/08/13 07:04:27;;;;;;;8.93;2.30;;;;;;;20.02;77.40;101596.19;5026430;28;20552;-73
2023/08/13 07:06:55;;;;;;;8.27;2.47;;;;;;;20.17;76.02;101591.75;5025974;28;20045;-73
2023/08/13 07:09:24;;;;;;;5.80;2.13;;;;;;;20.31;76.14;101592.72;5027600;28;20037;-72
2023/08/13 07:11:51;;;;;;;8.88;2.47;;;;;;;20.42;74.95;101589.44;5022690;28;20143;-72
2023/08/13 07:14:18;;;;;;;11.93;2.40;;;;;;;20.56;74.40;101585.91;5022543;28;20041;-73
2023/08/13 07:16:46;;;;;;;8.30;2.28;;;;;;;20.72;74.12;101585.84;5026358;28;20461;-73
2023/08/13 07:19:13;;;;;;;9.57;2.03;;;;;;;20.88;72.78;101583.94;5026087;28;20076;-73
2023/08/13 07:21:40;;;;;;;11.35;2.10;;;;;;;21.03;70.95;101587.47;5025258;28;20119;-72
2023/08/13 07:24:07;;;;;;;6.00;1.80;;;;;;;21.09;71.23;101584.44;5026093;28;20043;-71
2023/08/13 07:26:34;;;;;;;8.70;1.95;;;;;;;21.12;70.58;101578.00;5025354;28;20053;-71
2023/08/13 07:29:06;;;;;;;12.90;2.47;;;;;;;21.06;70.29;101584.63;5015290;28;20530;-73
2023/08/13 07:31:36;;;;;;;8.00;2.30;;;;;;;20.97;70.99;101587.88;5023568;28;20053;-71
2023/08/13 07:34:03;;;;;;;9.68;2.22;;;;;;;20.91;70.25;101586.44;5025494;28;20045;-71
2023/08/13 07:36:31;;;;;;;9.45;2.38;;;;;;;20.85;71.04;101583.28;5026344;28;20068;-71
2023/08/13 07:38:59;;;;;;;6.25;2.22;;;;;;;20.81;71.06;101587.97;5021850;28;20124;-71
2023/08/13 07:41:26;;;;;;;8.85;2.10;;;;;;;20.80;71.96;101580.88;5012977;28;20090;-71
2023/08/13 07:43:53;;;;;;;11.45;2.47;;;;;;;20.84;72.13;101579.75;5020702;28;20501;-73
2023/08/13 07:46:20;;;;;;;10.10;2.40;;;;;;;20.96;71.43;101582.63;5017173;28;20247;-73
2023/08/13 07:48:47;;;;;;;6.25;1.88;;;;;;;21.06;70.32;101575.72;5024214;28;20117;-72
2023/08/13 07:51:15;;;;;;;11.98;1.92;;;;;;;21.05;71.43;101579.38;5025930;28;20088;-73
2023/08/13 07:53:42;;;;;;;7.70;2.13;;;;;;;21.12;71.44;101572.66;5025719;28;20057;-72
2023/08/13 07:56:09;;;;;;;8.68;1.95;;;;;;;21.24;71.85;101565.63;5026023;28;20044;-73
2023/08/13 07:58:38;;;;;;;10.05;1.98;;;;;;;21.37;71.65;101571.94;5022311;28;20041;-72
2023/08/13 08:01:05;;;;;;;6.68;1.80;;;;;;;21.48;70.65;101578.44;5025030;28;20045;-72
2023/08/13 08:03:33;;;;;;;9.38;1.90;;;;;;;21.55;69.84;101577.06;5025639;28;20142;-72
2023/08/13 08:06:00;;;;;;;8.57;1.70;;;;;;;21.61;69.10;101575.84;5028454;28;20458;-73
2023/08/13 08:08:27;;;;;;;10.32;2.00;;;;;;;21.55;69.59;101582.44;5025186;28;20041;-72
2023/08/13 08:10:54;;;;;;;6.50;1.55;;;;;;;21.54;68.51;101578.03;5023269;28;20103;-71
2023/08/13 08:13:21;;;;;;;7.68;2.10;;;;;;;21.59;68.93;101575.06;5023881;28;20059;-72
2023/08/13 08:15:48;;;;;;;8.30;2.42;;;;;;;21.71;69.37;101575.16;5028542;28;20041;-71
2023/08/13 08:18:15;;;;;;;7.53;1.88;;;;;;;21.96;69.21;101570.81;5024745;28;20049;-71
2023/08/13 08:20:42;;;;;;;9.65;2.08;;;;;;;22.09;67.81;101573.50;5025395;28;20122;-71
2023/08/13 08:23:10;;;;;;;9.52;2.00;;;;;;;22.21;67.27;101565.59;5024627;28;20045;-71
2023/08/13 08:25:38;;;;;;;7.60;1.80;;;;;;;22.24;67.97;101570.75;5024069;28;20037;-71
2023/08/13 08:28:05;;;;;;;8.40;2.00;;;;;;;22.30;66.80;101567.66;5024268;28;20421;-71
2023/08/13 08:30:32;;;;;;;10.85;2.25;;;;;;;22.31;65.35;101567.56;5024132;28;20517;-71
2023/08/13 08:32:59;;;;;;;8.43;1.73;;;;;;;22.25;66.52;101567.97;5023466;28;20133;-71
2023/08/13 08:35:26;;;;;;;9.38;1.88;;;;;;;22.28;66.67;101566.91;5022984;28;20485;-73
2023/08/13 08:37:53;;;;;;;7.15;2.00;;;;;;;22.30;66.01;101570.34;5023601;28;20099;-71
2023/08/13 08:40:21;;;;;;;7.93;2.17;;;;;;;22.37;65.93;101577.03;5024941;28;20047;-72
2023/08/13 08:42:49;;;;;;;9.73;1.88;;;;;;;22.40;65.95;101568.78;5025559;28;20048;-71
2023/08/13 08:45:20;;;;;;;7.80;1.30;;;;;;;22.40;64.64;101567.88;5022812;28;20127;-73
2023/08/13 08:47:50;;;;;;;9.43;1.73;;;;;;;22.44;65.77;101572.09;5025301;28;20554;-73
2023/08/13 08:50:17;;;;;;;8.25;1.85;;;;;;;22.50;65.30;101574.38;5012349;28;20128;-73
2023/08/13 08:52:45;;;;;;;7.35;1.85;;;;;;;22.56;65.68;101579.31;5018778;28;20147;-72
2023/08/13 08:55:12;;;;;;;7.78;1.50;;;;;;;22.67;66.12;101562.44;5024098;28;20041;-71
2023/08/13 08:57:39;;;;;;;5.82;1.67;;;;;;;22.83;66.79;101564.91;5024428;28;20057;-73
2023/08/13 09:00:08;;;;;;;8.15;1.58;;;;;;;23.01;65.20;101567.25;5025999;28;20059;-73
2023/08/13 09:02:38;;;;;;;8.18;1.60;;;;;;;23.13;64.19;101560.13;5024672;28;20509;-73
2023/08/13 09:05:06;;;;;;;6.53;1.60;;;;;;;23.19;64.74;101565.94;5024720;28;20124;-74
2023/08/13 09:07:34;;;;;;;6.50;1.48;;;;;;;23.34;65.44;101553.22;5021366;28;20050;-73
2023/08/13 09:10:05;;;;;;;6.72;1.55;;;;;;;23.49;65.00;101553.91;5023930;28;20115;-73
2023/08/13 09:12:40;;;;;;;6.45;1.77;;;;;;;23.62;63.32;101561.91;5024532;28;20461;-73
2023/08/13 09:15:13;;;;;;;8.25;1.63;;;;;;;23.73;62.70;101558.44;5022425;28;20052;-73
2023/08/13 09:17:40;;;;;;;7.33;1.87;;;;;;;23.86;62.99;101558.38;5010786;28;20045;-73
2023/08/13 09:20:15;;;;;;;8.10;1.75;;;;;;;23.98;62.57;101557.47;5024440;28;20129;-73
2023/08/13 09:22:50;;;;;;;8.40;1.70;;;;;;;24.21;62.62;101556.69;5024329;28;20092;-73
2023/08/13 09:25:19;;;;;;;7.43;1.80;;;;;;;24.38;61.48;101547.28;5024139;28;20050;-73
2023/08/13 09:27:46;;;;;;;6.90;1.40;;;;;;;24.49;61.61;101542.78;5023927;28;20177;-73
2023/08/13 09:30:30;;;;;;;8.48;1.58;;;;;;;24.64;61.05;101540.69;5021559;28;20049;-71
2023/08/13 09:32:59;;;;;;;6.03;1.25;;;;;;;24.75;60.31;101536.31;5005166;28;20049;-72
2023/08/13 09:35:27;;;;;;;5.45;1.25;;;;;;;24.86;59.29;101535.47;5025544;28;20041;-73
2023/08/13 09:37:54;;;;;;;5.57;1.40;;;;;;;24.92;58.11;101535.84;5028893;28;20049;-72
2023/08/13 09:40:22;;;;;;;8.30;1.48;;;;;;;24.93;57.25;101529.44;5028009;28;20111;-71
2023/08/13 09:42:55;;;;;;;7.43;1.52;;;;;;;24.94;57.08;101527.63;5026448;28;20048;-74
2023/08/13 09:45:28;;;;;;;5.18;1.30;;;;;;;24.93;55.78;101528.59;5011394;28;20041;-73
2023/08/13 09:47:59;;;;;;;7.67;1.50;;;;;;;24.80;55.04;101520.66;5027235;28;20513;-73
2023/08/13 09:50:34;;;;;;;10.10;1.50;;;;;;;24.74;55.02;101522.00;5026875;28;20294;-73
2023/08/13 09:53:05;;;;;;;5.57;1.55;;;;;;;24.63;54.91;101516.56;5028190;28;20540;-73
2023/08/13 09:55:40;;;;;;;5.80;1.40;;;;;;;24.54;55.47;101530.78;5007795;28;20053;-72
2023/08/13 09:58:14;;;;;;;7.72;1.42;;;;;;;24.49;56.43;101512.28;5017329;28;20045;-73
2023/08/13 10:00:41;;;;;;;6.20;1.42;;;;;;;24.58;57.03;101513.38;5025876;28;20041;-73
2023/08/13 10:03:10;;;;;;;6.53;1.60;;;;;;;24.65;56.65;101507.38;5027595;28;20389;-73
2023/08/13 10:05:42;;;;;;;5.85;1.48;;;;;;;24.74;57.47;101511.22;5027081;28;20502;-73
2023/08/13 10:08:11;;;;;;;7.25;1.48;;;;;;;24.84;56.01;101505.94;5027258;28;20049;-73
2023/08/13 10:10:38;;;;;;;9.25;1.65;;;;;;;24.84;56.10;101494.31;5027915;28;20419;-73
2023/08/13 10:13:05;;;;;;;6.55;1.50;;;;;;;24.82;57.20;101497.13;5027518;28;20041;-71
2023/08/13 10:15:36;;;;;;;5.50;1.20;;;;;;;24.79;57.45;101500.06;5026057;28;20049;-73
2023/08/13 10:18:04;;;;;;;8.30;1.50;;;;;;;24.75;57.45;101493.19;5027202;28;20095;-72
2023/08/13 10:20:31;;;;;;;6.05;1.30;;;;;;;24.70;57.44;101498.13;5026884;28;20038;-71
2023/08/13 10:23:01;;;;;;;7.57;1.58;;;;;;;24.59;57.07;101491.72;5017837;28;20395;-72
2023/08/13 10:25:33;;;;;;;8.27;1.58;;;;;;;24.55;57.78;101492.09;5028400;28;20288;-73
2023/08/13 10:28:20;;;;;;;7.68;1.65;;;;;;;24.54;57.48;101491.22;5009590;28;20421;-71
2023/08/13 10:30:47;;;;;;;4.90;1.58;;;;;;;24.54;55.29;101491.22;5025476;28;20045;-72
2023/08/13 10:33:15;;;;;;;5.43;1.38;;;;;;;24.60;56.55;101490.72;5026888;28;20472;-72
2023/08/13 10:35:43;;;;;;;7.50;1.70;;;;;;;24.81;57.55;101485.47;5025896;28;20041;-72
2023/08/13 10:38:10;;;;;;;6.22;1.23;;;;;;;24.99;57.24;101493.03;5027227;28;20330;-72
2023/08/13 10:40:58;;;;;;;6.93;1.67;;;;;;;25.15;56.83;101481.00;5026168;28;20073;-71
2023/08/13 10:43:26;;;;;;;7.10;1.27;;;;;;;25.26;57.02;101486.38;5026672;28;20087;-73
2023/08/13 10:45:54;;;;;;;6.45;1.33;;;;;;;25.33;54.67;101487.56;5024240;28;20033;-73
2023/08/13 10:48:29;;;;;;;7.57;1.45;;;;;;;25.40;53.89;101485.25;5026926;28;20055;-74
2023/08/13 10:50:58;;;;;;;5.45;1.20;;;;;;;25.34;52.93;101483.88;5026192;28;20042;-73
2023/08/13 10:53:27;;;;;;;6.57;1.60;;;;;;;25.32;53.94;101480.47;5026388;28;20142;-73
2023/08/13 10:56:00;;;;;;;7.78;1.40;;;;;;;25.31;53.59;101486.00;5025871;28;20049;-73
2023/08/13 10:58:31;;;;;;;5.75;1.15;;;;;;;25.31;54.62;101481.44;5025906;28;20136;-71
2023/08/13 11:01:09;;;;;;;6.72;1.20;;;;;;;25.37;55.12;101474.69;5029147;28;20056;-74
2023/08/13 11:04:03;;;;;;;8.70;1.45;;;;;;;25.48;54.79;101476.53;5027156;28;20041;-72
2023/08/13 11:06:32;;;;;;;7.13;1.48;;;;;;;25.54;54.57;101470.59;5013277;28;20050;-73
2023/08/13 11:08:59;;;;;;;4.90;1.40;;;;;;;25.57;53.68;101467.66;5026425;28;20411;-72
2023/08/13 11:11:26;;;;;;;7.70;1.42;;;;;;;25.61;53.26;101468.25;5025822;28;20041;-73
2023/08/13 11:13:54;;;;;;;5.15;1.30;;;;;;;25.63;53.41;101468.97;5025737;28;20053;-73
2023/08/13 11:16:28;;;;;;;7.60;1.75;;;;;;;25.81;52.83;101469.22;5025887;28;20111;-73
2023/08/13 11:18:56;;;;;;;5.90;1.40;;;;;;;25.90;51.84;101473.84;5025593;28;20053;-71
2023/08/13 11:21:24;;;;;;;3.55;0.98;;;;;;;25.95;52.39;101466.22;5026985;28;20490;-74
2023/08/13 11:23:52;;;;;;;5.85;1.40;;;;;;;26.06;51.54;101478.78;5027919;28;20200;-73
2023/08/13 11:26:20;;;;;;;4.30;1.40;;;;;;;26.08;52.41;101468.69;5025431;28;20520;-74
2023/08/13 11:28:49;;;;;;;6.15;1.50;;;;;;;26.00;52.61;101472.06;5025431;28;20490;-74
2023/08/13 11:31:16;;;;;;;5.90;1.45;;;;;;;26.09;51.96;101472.28;5007839;28;20699;-73
2023/08/13 11:33:43;;;;;;;5.18;1.52;;;;;;;26.09;51.42;101466.88;5026187;28;20139;-73